Погода Санта Куитерияна неделю

Сеара, Бразилия

23 - 29 июля
  • 23июля
    Сегодня
    +22°
    +32°
    Ясно и безоблачно
    ВремяПогодаТемператураВлажностьДавлениеВетер, м/сВероятность осадков
    00:00Ясно и безоблачно+24°C66 %738 мм1.9 м/с5 %
    03:00Ясно и безоблачно+22°C71 %737 мм2.7 м/с5 %
    06:00Ясно и безоблачно+22°C72 %738 мм3.3 м/с5 %
    09:00Ясно и безоблачно+27°C50 %739 мм6.5 м/с5 %
    12:00Ясно и безоблачно+31°C38 %738 мм6.3 м/с5 %
    15:00Ясно и безоблачно+32°C36 %737 мм6.0 м/с5 %
    18:00Ясно и безоблачно+30°C41 %737 мм3.6 м/с5 %
    21:00Ясно и безоблачно+26°C55 %738 мм1.9 м/с5 %
  • 24июля
    Среда
    +21°
    +32°
    Ясно и безоблачно
    ВремяПогодаТемператураВлажностьДавлениеВетер, м/сВероятность осадков
    00:00Ясно и безоблачно+25°C78 %738 мм3.3 м/с3 %
    03:00Ясно и безоблачно+23°C86 %737 мм2.1 м/с2 %
    06:00Ясно и безоблачно+22°C77 %738 мм3.6 м/с5 %
    09:00Практически безоблачно+28°C52 %740 мм7.5 м/с3 %
    12:00Практически безоблачно+30°C41 %739 мм6.3 м/с5 %
    15:00Ясно и безоблачно+31°C37 %737 мм6.1 м/с5 %
    18:00Ясно и безоблачно+29°C42 %738 мм3.6 м/с5 %
    21:00Ясно и безоблачно+26°C55 %739 мм2.0 м/с5 %
  • 25июля
    Четверг
    +21°
    +31°
    Ясно и безоблачно
    ВремяПогодаТемператураВлажностьДавлениеВетер, м/сВероятность осадков
    00:00Ясно и безоблачно+23°C65 %739 мм2.2 м/с4 %
    03:00Ясно и безоблачно+22°C74 %738 мм3.6 м/с3 %
    06:00Практически безоблачно+21°C88 %739 мм3.1 м/с2 %
    09:00Ясно и безоблачно+27°C46 %740 мм5.9 м/с5 %
    12:00Ясно и безоблачно+30°C35 %738 мм7.4 м/с5 %
    15:00Ясно и безоблачно+31°C31 %736 мм6.4 м/с5 %
    18:00Ясно и безоблачно+29°C37 %736 мм4.0 м/с5 %
    21:00Ясно и безоблачно+25°C49 %737 мм2.1 м/с5 %
  • 26июля
    Пятница
    +21°
    +33°
    Небольшая облачность
    ВремяПогодаТемператураВлажностьДавлениеВетер, м/сВероятность осадков
    00:00Ясно и безоблачно+24°C66 %737 мм4.2 м/с5 %
    03:00Ясно и безоблачно+22°C75 %737 мм2.6 м/с5 %
    06:00Ясно и безоблачно+22°C86 %737 мм3.1 м/с5 %
    09:00Ясно и безоблачно+28°C49 %739 мм6.5 м/с5 %
    12:00Небольшая облачность+31°C38 %737 мм6.1 м/с5 %
    15:00Небольшая облачность+33°C32 %736 мм4.8 м/с5 %
    18:00Небольшая облачность+31°C37 %736 мм2.7 м/с5 %
    21:00Ясно и безоблачно+27°C46 %738 мм2.6 м/с5 %
Мы используем cookies
Соглашаюсь